createdAt,value
2023-02-28T00:01:53.378Z,101900.96
2023-02-28T00:04:21.256Z,101889.71
2023-02-28T00:06:49.047Z,101889.71
2023-02-28T00:09:16.913Z,101895.56
2023-02-28T00:11:44.824Z,101888.86
2023-02-28T00:14:12.688Z,101890.33
2023-02-28T00:16:40.524Z,101891.41
2023-02-28T00:19:08.568Z,101895.95
2023-02-28T00:21:36.463Z,101896.28
2023-02-28T00:24:04.427Z,101890.04
2023-02-28T00:26:32.370Z,101894.22
2023-02-28T00:29:00.283Z,101893.14
2023-02-28T00:31:28.444Z,101896.18
2023-02-28T00:33:56.510Z,101895.34
2023-02-28T00:36:24.486Z,101901.80
2023-02-28T00:38:52.398Z,101893.47
2023-02-28T00:41:21.613Z,101886.73
2023-02-28T00:43:49.431Z,101887.84
2023-02-28T00:46:17.318Z,101893.80
2023-02-28T00:48:45.576Z,101886.73
2023-02-28T00:51:13.479Z,101878.56
2023-02-28T00:53:41.244Z,101880.26
2023-02-28T00:56:09.343Z,101888.37
2023-02-28T00:58:37.181Z,101881.37
2023-02-28T01:01:05.155Z,101879.93
2023-02-28T01:03:33.176Z,101880.16
2023-02-28T01:06:01.130Z,101885.79
2023-02-28T01:08:28.980Z,101879.93
2023-02-28T01:10:56.764Z,101878.56
2023-02-28T01:13:25.445Z,101880.26
2023-02-28T01:15:54.938Z,101876.50
2023-02-28T01:18:23.184Z,101880.78
2023-02-28T01:20:51.205Z,101873.03
2023-02-28T01:23:19.148Z,101875.23
2023-02-28T01:25:47.123Z,101870.81
2023-02-28T01:28:15.036Z,101877.55
2023-02-28T01:30:43.012Z,101880.95
2023-02-28T01:33:10.918Z,101870.81
2023-02-28T01:35:38.749Z,101875.00
2023-02-28T01:38:20.872Z,101885.85
2023-02-28T01:40:49.347Z,101881.96
2023-02-28T01:43:31.319Z,101878.89
2023-02-28T01:45:59.639Z,101883.76
2023-02-28T01:48:35.080Z,101883.17
2023-02-28T01:51:05.445Z,101881.80
2023-02-28T01:53:39.705Z,101879.84
2023-02-28T01:56:08.525Z,101872.77
2023-02-28T01:58:36.674Z,101872.25
2023-02-28T02:01:05.230Z,101874.21
2023-02-28T02:03:33.180Z,101881.02
2023-02-28T02:06:01.122Z,101876.80
2023-02-28T02:08:29.268Z,101877.02
2023-02-28T02:11:03.707Z,101875.91
2023-02-28T02:13:57.684Z,101868.09
2023-02-28T02:16:37.380Z,101868.42
2023-02-28T02:19:21.146Z,101869.02
2023-02-28T02:22:10.721Z,101863.91
2023-02-28T02:24:49.619Z,101858.55
2023-02-28T02:27:22.617Z,101858.29
2023-02-28T02:30:02.576Z,101852.93
2023-02-28T02:32:39.266Z,101857.70
2023-02-28T02:35:22.258Z,101858.81
2023-02-28T02:38:06.368Z,101860.52
2023-02-28T02:40:40.555Z,101855.48
2023-02-28T02:43:21.245Z,101858.91
2023-02-28T02:45:54.660Z,101865.38
2023-02-28T02:48:23.753Z,101861.72
2023-02-28T02:50:54.129Z,101864.86
2023-02-28T02:53:32.748Z,101863.42
2023-02-28T02:56:00.622Z,101874.90
2023-02-28T02:58:30.886Z,101865.61
2023-02-28T03:01:01.394Z,101870.16
2023-02-28T03:03:32.195Z,101865.38
2023-02-28T03:06:01.534Z,101865.88
2023-02-28T03:08:30.128Z,101870.65
2023-02-28T03:11:02.351Z,101870.65
2023-02-28T03:14:07.737Z,101862.48
2023-02-28T03:16:52.488Z,101857.11
2023-02-28T03:20:17.530Z,101867.25
2023-02-28T03:22:53.202Z,101856.23
2023-02-28T03:25:26.041Z,101854.30
2023-02-28T03:28:17.763Z,101854.56
2023-02-28T03:30:50.729Z,101854.30
2023-02-28T03:33:21.417Z,101852.60
2023-02-28T03:36:01.530Z,101852.34
2023-02-28T03:38:51.426Z,101859.92
2023-02-28T03:41:25.979Z,101852.60
2023-02-28T03:43:57.409Z,101851.91
2023-02-28T03:46:27.057Z,101847.14
2023-02-28T03:48:54.891Z,101862.31
2023-02-28T03:51:23.696Z,101859.50
2023-02-28T03:54:04.235Z,101856.42
2023-02-28T03:56:50.108Z,101870.13
2023-02-28T03:59:41.193Z,101872.71
2023-02-28T04:02:09.426Z,101869.63
2023-02-28T04:04:37.421Z,101867.15
2023-02-28T04:07:12.232Z,101863.48
2023-02-28T04:09:40.036Z,101875.00
2023-02-28T04:12:08.120Z,101876.44
2023-02-28T04:14:35.922Z,101884.51
2023-02-28T04:17:03.717Z,101883.98
2023-02-28T04:19:31.537Z,101871.92
2023-02-28T04:21:59.288Z,101878.04
2023-02-28T04:24:28.751Z,101878.89
2023-02-28T04:26:58.226Z,101879.21
2023-02-28T04:29:28.385Z,101886.57
2023-02-28T04:31:57.051Z,101878.13
2023-02-28T04:34:25.813Z,101883.76
2023-02-28T04:37:11.540Z,101878.13
2023-02-28T04:39:40.477Z,101878.13
2023-02-28T04:42:08.455Z,101877.94
2023-02-28T04:44:36.396Z,101882.81
2023-02-28T04:47:04.210Z,101876.08
2023-02-28T04:49:32.236Z,101875.23
2023-02-28T04:52:00.092Z,101889.28
2023-02-28T04:54:27.986Z,101882.81
2023-02-28T04:56:56.888Z,101892.09
2023-02-28T04:59:24.706Z,101897.20
2023-02-28T05:01:52.833Z,101898.57
2023-02-28T05:04:20.695Z,101897.10
2023-02-28T05:06:48.495Z,101890.40
2023-02-28T05:09:16.499Z,101905.27
2023-02-28T05:11:44.514Z,101900.53
2023-02-28T05:14:14.438Z,101903.31
2023-02-28T05:16:42.416Z,101902.36
2023-02-28T05:19:10.503Z,101910.57
2023-02-28T05:21:39.214Z,101904.95
2023-02-28T05:24:08.887Z,101913.28
2023-02-28T05:26:37.926Z,101906.81
2023-02-28T05:29:05.800Z,101916.69
2023-02-28T05:31:33.918Z,101913.61
2023-02-28T05:34:01.872Z,101923.78
2023-02-28T05:36:29.853Z,101913.12
2023-02-28T05:38:57.848Z,101918.71
2023-02-28T05:41:25.697Z,101925.71
2023-02-28T05:43:53.816Z,101922.54
2023-02-28T05:46:21.675Z,101928.16
2023-02-28T05:48:50.176Z,101919.49
2023-02-28T05:51:18.593Z,101932.45
2023-02-28T05:53:46.511Z,101919.17
2023-02-28T05:56:14.318Z,101927.57
2023-02-28T05:58:42.230Z,101928.95
2023-02-28T06:01:40.534Z,101928.81
2023-02-28T06:04:19.216Z,101936.14
2023-02-28T06:06:51.152Z,101933.00
2023-02-28T06:09:19.558Z,101936.40
2023-02-28T06:11:47.529Z,101941.53
2023-02-28T06:14:17.976Z,101940.29
2023-02-28T06:16:45.821Z,101942.88
2023-02-28T06:19:13.786Z,101946.80
2023-02-28T06:21:41.634Z,101944.57
2023-02-28T06:24:09.587Z,101949.67
2023-02-28T06:26:37.557Z,101953.96
2023-02-28T06:29:05.430Z,101951.99
2023-02-28T06:31:33.948Z,101961.87
2023-02-28T06:34:02.196Z,101961.28
2023-02-28T06:36:30.038Z,101963.21
2023-02-28T06:38:58.262Z,101969.72
2023-02-28T06:41:27.176Z,101971.16
2023-02-28T06:43:55.482Z,101981.88
2023-02-28T06:46:23.408Z,101976.26
2023-02-28T06:48:51.418Z,101983.61
2023-02-28T06:51:24.616Z,101993.98
2023-02-28T06:53:53.184Z,101985.58
2023-02-28T06:56:22.311Z,101981.29
2023-02-28T06:58:51.184Z,101988.26
2023-02-28T07:01:19.287Z,101984.34
2023-02-28T07:03:47.451Z,101993.62
2023-02-28T07:06:15.395Z,101997.54
2023-02-28T07:08:43.340Z,102001.95
2023-02-28T07:11:11.252Z,102007.32
2023-02-28T07:13:39.249Z,102003.30
2023-02-28T07:16:08.749Z,102014.28
2023-02-28T07:18:37.070Z,102015.39
2023-02-28T07:21:05.802Z,102017.68
2023-02-28T07:23:33.731Z,102007.32
2023-02-28T07:26:01.691Z,102012.32
2023-02-28T07:28:29.701Z,102011.73
2023-02-28T07:30:57.639Z,102014.19
2023-02-28T07:33:26.136Z,102018.70
2023-02-28T07:35:54.025Z,102016.11
2023-02-28T07:38:21.880Z,102012.13
2023-02-28T07:40:50.125Z,102010.95
2023-02-28T07:43:17.992Z,102019.68
2023-02-28T07:45:45.843Z,102019.45
2023-02-28T07:48:13.764Z,102021.28
2023-02-28T07:50:41.636Z,102016.87
2023-02-28T07:53:09.558Z,102027.75
2023-02-28T07:55:37.451Z,102016.70
2023-02-28T07:58:05.416Z,102023.30
2023-02-28T08:00:34.293Z,102029.95
2023-02-28T08:03:02.221Z,102025.92
2023-02-28T08:05:30.165Z,102025.86
2023-02-28T08:07:58.033Z,102023.80
2023-02-28T08:10:26.596Z,102028.21
2023-02-28T08:12:54.508Z,102033.51
2023-02-28T08:15:22.468Z,102041.32
2023-02-28T08:17:50.388Z,102035.60
2023-02-28T08:20:18.271Z,102034.91
2023-02-28T08:22:46.493Z,102038.87
2023-02-28T08:25:14.370Z,102035.21
2023-02-28T08:27:42.508Z,102032.73
2023-02-28T08:30:15.507Z,102036.05
2023-02-28T08:32:43.400Z,102033.24
2023-02-28T08:35:11.590Z,102033.73
2023-02-28T08:37:39.576Z,102037.73
2023-02-28T08:40:08.507Z,102038.51
2023-02-28T08:42:36.780Z,102037.40
2023-02-28T08:45:05.409Z,102050.61
2023-02-28T08:47:34.015Z,102043.87
2023-02-28T08:50:02.222Z,102052.47
2023-02-28T08:52:30.420Z,102061.23
2023-02-28T08:54:58.582Z,102055.61
2023-02-28T08:57:28.499Z,102055.38
2023-02-28T08:59:56.748Z,102057.80
2023-02-28T09:02:24.835Z,102058.78
2023-02-28T09:04:53.127Z,102056.23
2023-02-28T09:07:27.246Z,102057.80
2023-02-28T09:09:58.242Z,102066.63
2023-02-28T09:12:27.183Z,102060.22
2023-02-28T09:14:55.548Z,102070.98
2023-02-28T09:17:23.972Z,102069.60
2023-02-28T09:19:54.764Z,102073.04
2023-02-28T09:22:23.716Z,102073.95
2023-02-28T09:24:51.942Z,102075.06
2023-02-28T09:27:20.177Z,102073.10
2023-02-28T09:29:49.205Z,102062.70
2023-02-28T09:32:17.732Z,102061.70
2023-02-28T09:34:45.913Z,102067.94
2023-02-28T09:37:14.225Z,102063.49
2023-02-28T09:39:42.278Z,102068.88
2023-02-28T09:42:17.046Z,102065.78
2023-02-28T09:44:46.335Z,102059.93
2023-02-28T09:47:35.483Z,102067.02
2023-02-28T09:50:36.237Z,102077.16
2023-02-28T09:53:06.441Z,102070.68
2023-02-28T09:55:46.409Z,102068.27
2023-02-28T09:58:43.666Z,102071.60
2023-02-28T10:01:13.523Z,102080.72
2023-02-28T10:03:43.353Z,102086.61
2023-02-28T10:06:20.568Z,102083.17
2023-02-28T10:09:15.832Z,102087.45
2023-02-28T10:11:45.104Z,102085.69
2023-02-28T10:14:27.029Z,102090.37
2023-02-28T10:17:07.964Z,102089.09
2023-02-28T10:19:42.419Z,102093.08
2023-02-28T10:22:28.543Z,102094.23
2023-02-28T10:24:58.898Z,102101.55
2023-02-28T10:27:32.753Z,102100.44
2023-02-28T10:30:02.694Z,102105.47
2023-02-28T10:32:37.699Z,102104.16
2023-02-28T10:35:12.987Z,102098.02
2023-02-28T10:37:45.175Z,102094.72
2023-02-28T10:40:22.558Z,102094.78
2023-02-28T10:43:07.460Z,102107.23
2023-02-28T10:45:37.491Z,102106.48
2023-02-28T10:48:17.780Z,102112.53
2023-02-28T10:50:54.444Z,102104.85
2023-02-28T10:53:28.203Z,102102.53
2023-02-28T10:56:03.711Z,102115.25
2023-02-28T10:58:53.512Z,102104.85
2023-02-28T11:01:40.823Z,102109.00
2023-02-28T11:04:43.218Z,102100.86
2023-02-28T11:07:24.592Z,102118.91
2023-02-28T11:09:55.257Z,102115.54
2023-02-28T11:12:24.604Z,102125.16
2023-02-28T11:14:58.334Z,102124.30
2023-02-28T11:17:30.890Z,102119.53
2023-02-28T11:20:01.080Z,102120.05
2023-02-28T11:22:33.572Z,102116.88
2023-02-28T11:25:03.868Z,102118.95
2023-02-28T11:27:36.212Z,102112.70
2023-02-28T11:30:04.326Z,102108.88
2023-02-28T11:32:32.754Z,102108.12
2023-02-28T11:35:16.473Z,102101.35
2023-02-28T11:37:44.717Z,102093.54
2023-02-28T11:40:17.211Z,102102.62
2023-02-28T11:42:54.310Z,102101.32
2023-02-28T11:45:45.204Z,102096.16
2023-02-28T11:48:39.565Z,102104.42
2023-02-28T11:51:27.281Z,102099.62
2023-02-28T11:54:11.158Z,102100.30
2023-02-28T11:56:46.646Z,102095.01
2023-02-28T11:59:36.449Z,102090.56
2023-02-28T12:02:25.300Z,102096.80
2023-02-28T12:04:53.390Z,102095.08
2023-02-28T12:07:41.896Z,102097.98
2023-02-28T12:10:34.144Z,102097.13
2023-02-28T12:13:25.978Z,102092.36
2023-02-28T12:16:10.413Z,102094.32
2023-02-28T12:18:48.356Z,102094.35
2023-02-28T12:21:42.924Z,102099.16
2023-02-28T12:24:21.289Z,102104.36
2023-02-28T12:26:50.529Z,102101.26
2023-02-28T12:29:24.036Z,102112.27
2023-02-28T12:31:53.205Z,102108.35
2023-02-28T12:34:27.892Z,102101.62
2023-02-28T12:36:56.463Z,102098.80
2023-02-28T12:39:49.536Z,102093.47
2023-02-28T12:42:30.868Z,102079.31
2023-02-28T12:45:04.145Z,102081.48
2023-02-28T12:47:32.638Z,102086.61
2023-02-28T12:50:13.870Z,102078.14
2023-02-28T12:53:00.512Z,102078.79
2023-02-28T12:55:38.299Z,102073.76
2023-02-28T12:58:29.558Z,102080.55
2023-02-28T13:01:31.978Z,102073.76
2023-02-28T13:04:06.162Z,102076.30
2023-02-28T13:07:11.683Z,102078.89
2023-02-28T13:09:40.872Z,102080.66
2023-02-28T13:12:19.238Z,102080.36
2023-02-28T13:14:47.411Z,102081.05
2023-02-28T13:17:20.142Z,102067.71
2023-02-28T13:19:54.303Z,102069.93
2023-02-28T13:22:28.229Z,102070.32
2023-02-28T13:24:59.317Z,102074.87
2023-02-28T13:27:45.034Z,102076.83
2023-02-28T13:30:50.747Z,102070.32
2023-02-28T13:33:34.295Z,102080.75
2023-02-28T13:36:15.819Z,102075.66
2023-02-28T13:38:51.333Z,102072.25
2023-02-28T13:41:31.755Z,102074.80
2023-02-28T13:44:12.689Z,102075.98
2023-02-28T13:46:50.123Z,102080.16
2023-02-28T13:49:22.291Z,102079.09
2023-02-28T13:51:54.075Z,102084.74
2023-02-28T13:54:40.510Z,102081.15
2023-02-28T13:57:50.228Z,102092.95
2023-02-28T14:00:40.287Z,102093.05
2023-02-28T14:03:29.539Z,102091.58
2023-02-28T14:06:34.768Z,102088.77
2023-02-28T14:09:19.483Z,102073.30
2023-02-28T14:11:48.292Z,102089.68
2023-02-28T14:14:38.325Z,102092.23
2023-02-28T14:17:16.795Z,102097.52
2023-02-28T14:19:48.955Z,102091.91
2023-02-28T14:22:38.857Z,102085.46
2023-02-28T14:25:21.710Z,102087.75
2023-02-28T14:28:02.776Z,102088.11
2023-02-28T14:31:10.380Z,102093.73
2023-02-28T14:34:17.427Z,102082.98
2023-02-28T14:36:46.288Z,102087.20
2023-02-28T14:39:28.604Z,102080.95
2023-02-28T14:41:56.944Z,102086.87
2023-02-28T15:01:26.785Z,102102.79
2023-02-28T15:04:03.525Z,102109.04
2023-02-28T15:10:29.827Z,102105.02
2023-02-28T15:13:01.165Z,102106.06
2023-02-28T15:16:04.365Z,102111.45
2023-02-28T15:18:55.170Z,102111.13
2023-02-28T15:21:27.878Z,102111.45
2023-02-28T15:23:58.211Z,102117.93
2023-02-28T15:26:29.307Z,102116.23
2023-02-28T15:29:01.591Z,102121.27
2023-02-28T15:35:02.138Z,102124.53
2023-02-28T15:37:40.236Z,102119.76
2023-02-28T15:40:08.354Z,102121.66
2023-02-28T15:46:17.894Z,102124.53
2023-02-28T15:52:45.502Z,102119.40
2023-02-28T15:55:14.862Z,102118.68
2023-02-28T15:57:42.959Z,102132.25
2023-02-28T16:00:15.229Z,102118.16
